Terminal Aerodrome Forecast
Issued by NWS

Home | Current Version | Previous Version | Graphics & Text | Print | Product List | Glossary On
Versions: 1 2 3 4 5 6 7 8 9 10 11 12 13 14 15 16 17 18
861
FTUS43 KBIS 072332
TAFJMS
TAF
KJMS 072332Z 0800/0824 33032G45KT P6SM -SHSN OVC030
      TEMPO 0800/0803 3SM -SHSN BLSN OVC015
     FM080600 33032G46KT P6SM OVC025
     FM081200 34025G35KT P6SM BKN020
     FM081500 33025G35KT P6SM SCT025=

USA.gov is the U.S. government's official web portal to all federal, state and local government web resources and services.